createdAt,value
2018-09-29T00:00:18.179Z,10.70
2018-09-29T00:02:46.720Z,10.60
2018-09-29T00:05:15.084Z,10.60
2018-09-29T00:07:43.427Z,10.60
2018-09-29T00:10:11.758Z,10.60
2018-09-29T00:12:40.134Z,10.50
2018-09-29T00:15:08.612Z,10.50
2018-09-29T00:17:37.669Z,10.50
2018-09-29T00:20:06.116Z,10.50
2018-09-29T00:22:34.522Z,10.40
2018-09-29T00:25:02.833Z,10.40
2018-09-29T00:27:31.163Z,10.40
2018-09-29T00:29:59.579Z,10.40
2018-09-29T00:32:28.102Z,10.30
2018-09-29T00:34:56.542Z,10.30
2018-09-29T00:37:24.972Z,10.30
2018-09-29T00:39:53.316Z,10.30
2018-09-29T00:42:21.742Z,10.30
2018-09-29T00:44:50.126Z,10.20
2018-09-29T00:47:18.498Z,10.20
2018-09-29T00:49:46.900Z,10.20
2018-09-29T00:52:15.227Z,10.20
2018-09-29T00:54:43.628Z,10.10
2018-09-29T00:57:12.050Z,10.10
2018-09-29T00:59:40.418Z,10.00
2018-09-29T01:02:09.006Z,10.00
2018-09-29T01:04:37.433Z,10.00
2018-09-29T01:07:05.811Z,10.00
2018-09-29T01:09:34.177Z,10.00
2018-09-29T01:12:02.548Z,9.90
2018-09-29T01:14:30.907Z,9.90
2018-09-29T01:16:59.196Z,9.90
2018-09-29T01:19:30.254Z,9.80
2018-09-29T01:21:58.672Z,9.80
2018-09-29T01:24:27.045Z,9.80
2018-09-29T01:26:55.371Z,9.80
2018-09-29T01:29:23.873Z,9.70
2018-09-29T01:31:52.209Z,9.80
2018-09-29T01:34:20.553Z,9.70
2018-09-29T01:36:48.898Z,9.70
2018-09-29T01:39:17.285Z,9.70
2018-09-29T01:41:45.757Z,9.60
2018-09-29T01:44:14.143Z,9.60
2018-09-29T01:46:42.515Z,9.50
2018-09-29T01:49:11.362Z,9.50
2018-09-29T01:51:39.686Z,9.50
2018-09-29T01:54:08.025Z,9.40
2018-09-29T01:56:37.372Z,9.40
2018-09-29T01:59:05.765Z,9.40
2018-09-29T02:01:34.084Z,9.50
2018-09-29T02:04:02.514Z,9.50
2018-09-29T02:06:30.912Z,9.50
2018-09-29T02:08:59.238Z,9.50
2018-09-29T02:11:27.605Z,9.50
2018-09-29T02:13:56.106Z,9.50
2018-09-29T02:16:24.498Z,9.50
2018-09-29T02:18:52.996Z,9.40
2018-09-29T02:21:21.430Z,9.40
2018-09-29T02:23:49.859Z,9.30
2018-09-29T02:26:18.278Z,9.30
2018-09-29T02:28:46.756Z,9.30
2018-09-29T02:31:15.029Z,9.30
2018-09-29T02:33:43.408Z,9.20
2018-09-29T02:36:11.750Z,9.20
2018-09-29T02:38:40.147Z,9.20
2018-09-29T02:41:08.444Z,9.10
2018-09-29T02:43:37.007Z,9.10
2018-09-29T02:46:05.387Z,9.10
2018-09-29T02:48:33.791Z,9.10
2018-09-29T02:51:02.130Z,9.10
2018-09-29T02:53:30.637Z,9.10
2018-09-29T02:55:58.995Z,9.10
2018-09-29T02:58:27.361Z,9.10
2018-09-29T03:00:55.749Z,9.10
2018-09-29T03:03:24.153Z,9.00
2018-09-29T03:05:52.410Z,9.10
2018-09-29T03:08:20.731Z,9.10
2018-09-29T03:10:49.118Z,9.10
2018-09-29T03:13:17.494Z,9.10
2018-09-29T03:15:45.821Z,9.00
2018-09-29T03:18:14.173Z,9.00
2018-09-29T03:20:42.580Z,9.00
2018-09-29T03:23:10.906Z,9.10
2018-09-29T03:25:39.407Z,9.10
2018-09-29T03:28:07.765Z,9.10
2018-09-29T03:30:36.197Z,9.10
2018-09-29T03:33:04.575Z,9.20
2018-09-29T03:35:32.808Z,9.30
2018-09-29T03:38:01.083Z,9.30
2018-09-29T03:40:29.391Z,9.30
2018-09-29T03:42:57.759Z,9.40
2018-09-29T03:45:26.190Z,9.40
2018-09-29T03:47:54.622Z,9.40
2018-09-29T03:50:23.076Z,9.40
2018-09-29T03:52:51.510Z,9.40
2018-09-29T03:55:19.814Z,9.30
2018-09-29T03:57:48.264Z,9.30
2018-09-29T04:00:16.673Z,9.40
2018-09-29T04:02:44.965Z,9.40
2018-09-29T04:05:13.321Z,9.30
2018-09-29T04:07:41.755Z,9.30
2018-09-29T04:10:10.053Z,9.40
2018-09-29T04:12:38.400Z,9.40
2018-09-29T04:15:06.761Z,9.40
2018-09-29T04:17:35.094Z,9.40
2018-09-29T04:20:03.547Z,9.40
2018-09-29T04:22:31.895Z,9.50
2018-09-29T04:25:00.203Z,9.50
2018-09-29T04:27:28.620Z,9.50
2018-09-29T04:29:57.068Z,9.60
2018-09-29T04:32:25.411Z,9.60
2018-09-29T04:34:53.767Z,9.60
2018-09-29T04:37:22.228Z,9.60
2018-09-29T04:39:50.598Z,9.60
2018-09-29T04:42:19.243Z,9.60
2018-09-29T04:44:47.574Z,9.60
2018-09-29T04:47:15.876Z,9.70
2018-09-29T04:49:44.273Z,9.70
2018-09-29T04:52:12.649Z,9.70
2018-09-29T04:54:40.971Z,9.60
2018-09-29T04:57:09.331Z,9.70
2018-09-29T04:59:37.622Z,9.70
2018-09-29T05:02:06.062Z,9.70
2018-09-29T05:04:34.365Z,9.80
2018-09-29T05:07:02.779Z,9.80
2018-09-29T05:09:31.101Z,9.80
2018-09-29T05:11:59.528Z,9.80
2018-09-29T05:14:27.946Z,9.80
2018-09-29T05:16:56.303Z,9.80
2018-09-29T05:19:24.780Z,9.80
2018-09-29T05:21:53.181Z,9.80
2018-09-29T05:24:21.587Z,9.80
2018-09-29T05:26:49.943Z,9.80
2018-09-29T05:29:18.285Z,9.80
2018-09-29T05:31:46.787Z,9.70
2018-09-29T05:34:15.280Z,9.70
2018-09-29T05:36:43.685Z,9.60
2018-09-29T05:39:12.040Z,9.60
2018-09-29T05:41:40.488Z,9.60
2018-09-29T05:44:08.898Z,9.60
2018-09-29T05:46:37.276Z,9.50
2018-09-29T05:49:05.706Z,9.50
2018-09-29T05:51:34.940Z,9.50
2018-09-29T05:54:04.440Z,9.50
2018-09-29T05:56:33.365Z,9.40
2018-09-29T05:59:01.935Z,9.40
2018-09-29T06:01:30.328Z,9.40
2018-09-29T06:03:58.765Z,9.40
2018-09-29T06:06:27.361Z,9.30
2018-09-29T06:08:55.822Z,9.30
2018-09-29T06:11:24.337Z,9.40
2018-09-29T06:13:52.702Z,9.40
2018-09-29T06:16:21.262Z,9.40
2018-09-29T06:18:49.665Z,9.40
2018-09-29T06:21:18.095Z,9.40
2018-09-29T06:23:46.501Z,9.40
2018-09-29T06:26:14.866Z,9.40
2018-09-29T06:28:43.360Z,9.40
2018-09-29T06:31:11.755Z,9.40
2018-09-29T06:33:40.369Z,9.40
2018-09-29T06:36:08.936Z,9.50
2018-09-29T06:38:37.462Z,9.20
2018-09-29T06:41:06.006Z,9.50
2018-09-29T06:43:34.547Z,9.60
2018-09-29T06:46:03.012Z,9.70
2018-09-29T06:48:31.578Z,9.70
2018-09-29T06:51:00.064Z,9.80
2018-09-29T06:53:28.491Z,9.90
2018-09-29T06:55:57.582Z,10.00
2018-09-29T06:58:52.536Z,10.10
2018-09-29T07:01:21.206Z,10.10
2018-09-29T07:03:49.732Z,10.20
2018-09-29T07:06:18.121Z,10.20
2018-09-29T07:08:46.533Z,10.30
2018-09-29T07:11:15.280Z,10.40
2018-09-29T07:13:43.799Z,10.60
2018-09-29T07:16:12.200Z,10.70
2018-09-29T07:18:40.590Z,10.80
2018-09-29T07:21:09.148Z,10.90
2018-09-29T07:23:37.671Z,11.00
2018-09-29T07:26:06.106Z,11.10
2018-09-29T07:28:34.464Z,11.30
2018-09-29T07:31:02.944Z,11.40
2018-09-29T07:33:31.301Z,11.50
2018-09-29T07:36:00.436Z,11.60
2018-09-29T07:38:28.836Z,11.70
2018-09-29T07:40:57.301Z,11.80
2018-09-29T07:43:38.477Z,11.90
2018-09-29T07:46:07.332Z,12.10
2018-09-29T07:48:37.564Z,12.20
2018-09-29T07:51:06.588Z,12.30
2018-09-29T07:53:35.903Z,12.50
2018-09-29T07:56:05.001Z,12.60
2018-09-29T07:58:33.419Z,12.70
2018-09-29T08:01:02.212Z,12.90
2018-09-29T08:03:30.667Z,12.90
2018-09-29T08:06:00.620Z,13.10
2018-09-29T08:08:29.626Z,13.30
2018-09-29T08:10:58.282Z,13.50
2018-09-29T08:13:26.738Z,13.60
2018-09-29T08:15:55.179Z,13.70
2018-09-29T08:18:23.552Z,13.90
2018-09-29T08:20:51.906Z,14.10
2018-09-29T08:23:26.340Z,14.30
2018-09-29T08:26:00.876Z,14.50
2018-09-29T08:28:30.395Z,14.70
2018-09-29T08:30:58.759Z,14.90
2018-09-29T08:33:27.283Z,15.10
2018-09-29T08:35:57.223Z,15.40
2018-09-29T08:38:25.723Z,15.50
2018-09-29T08:40:54.115Z,15.70
2018-09-29T08:43:22.494Z,15.80
2018-09-29T08:45:51.071Z,16.00
2018-09-29T08:48:25.568Z,16.10
2018-09-29T08:50:54.438Z,16.10
2018-09-29T08:53:23.118Z,16.20
2018-09-29T08:55:51.495Z,16.20
2018-09-29T08:58:21.556Z,16.40
2018-09-29T09:00:49.932Z,16.60
2018-09-29T09:03:18.279Z,16.90
2018-09-29T09:05:46.707Z,17.20
2018-09-29T09:08:15.429Z,17.40
2018-09-29T09:10:43.899Z,17.60
2018-09-29T09:13:12.330Z,17.80
2018-09-29T09:15:40.811Z,18.10
2018-09-29T09:18:09.233Z,18.40
2018-09-29T09:20:39.203Z,18.60
2018-09-29T09:23:07.694Z,18.60
2018-09-29T09:25:37.016Z,18.70
2018-09-29T09:28:05.523Z,18.90
2018-09-29T09:30:33.976Z,18.90
2018-09-29T09:33:02.376Z,19.00
2018-09-29T09:35:30.819Z,19.00
2018-09-29T09:37:59.308Z,19.10
2018-09-29T09:40:27.738Z,19.20
2018-09-29T09:42:56.413Z,19.20
2018-09-29T09:45:24.916Z,19.10
2018-09-29T09:47:53.564Z,19.10
2018-09-29T09:50:25.455Z,19.20
2018-09-29T09:52:54.978Z,19.40
2018-09-29T09:55:23.526Z,19.80
2018-09-29T09:57:52.315Z,20.10
2018-09-29T10:00:23.114Z,20.70
2018-09-29T10:02:57.242Z,21.20
2018-09-29T10:05:26.318Z,21.80
2018-09-29T10:07:55.136Z,22.60
2018-09-29T10:10:25.632Z,23.40
2018-09-29T10:12:54.559Z,24.10
2018-09-29T10:15:23.747Z,24.80
2018-09-29T10:17:52.610Z,25.20
2018-09-29T10:20:21.531Z,25.50
2018-09-29T10:22:50.168Z,25.80
2018-09-29T10:25:19.102Z,25.80
2018-09-29T10:27:48.385Z,25.90
2018-09-29T10:30:18.018Z,25.80
2018-09-29T10:32:47.370Z,26.20
2018-09-29T10:35:16.406Z,26.50
2018-09-29T10:46:17.362Z,29.10
2018-09-29T10:51:39.493Z,30.40
2018-09-29T10:54:08.574Z,31.10
2018-09-29T10:56:49.515Z,32.40
2018-09-29T11:02:11.091Z,33.60
2018-09-29T11:05:02.525Z,35.20
2018-09-29T14:44:10.012Z,41.60
2018-09-29T14:46:39.246Z,41.30
2018-09-29T14:49:10.028Z,39.10
2018-09-29T14:51:41.127Z,36.80
2018-09-29T14:54:10.729Z,35.10
2018-09-29T14:56:39.694Z,33.10
2018-09-29T14:59:09.154Z,31.90
2018-09-29T15:01:38.675Z,31.20
2018-09-29T15:04:08.734Z,30.10
2018-09-29T15:06:37.848Z,29.00
2018-09-29T15:09:11.315Z,28.20
2018-09-29T15:11:40.541Z,27.50
2018-09-29T15:14:10.977Z,27.00
2018-09-29T15:16:40.319Z,26.50
2018-09-29T15:19:09.839Z,26.10
2018-09-29T15:21:39.740Z,25.80
2018-09-29T15:24:08.919Z,25.40
2018-09-29T15:26:38.142Z,25.20
2018-09-29T15:29:07.539Z,25.00
2018-09-29T15:31:37.705Z,24.70
2018-09-29T15:34:07.190Z,24.40
2018-09-29T15:36:36.396Z,24.20
2018-09-29T15:39:08.738Z,23.70
2018-09-29T15:41:38.916Z,23.50
2018-09-29T15:44:10.466Z,23.20
2018-09-29T15:46:40.089Z,22.80
2018-09-29T15:49:09.645Z,22.70
2018-09-29T15:51:38.551Z,22.50
2018-09-29T15:54:08.960Z,22.40
2018-09-29T15:56:38.569Z,22.10
2018-09-29T15:59:08.319Z,22.00
2018-09-29T16:01:38.190Z,21.90
2018-09-29T16:04:08.222Z,21.90
2018-09-29T16:06:37.364Z,21.80
2018-09-29T16:09:10.069Z,21.70
2018-09-29T16:11:42.445Z,21.50
2018-09-29T16:14:11.910Z,21.30
2018-09-29T16:16:44.946Z,21.20
2018-09-29T16:19:19.721Z,21.10
2018-09-29T16:21:49.461Z,21.00
2018-09-29T16:24:20.547Z,20.80
2018-09-29T16:26:52.515Z,20.60
2018-09-29T16:29:22.409Z,20.40
2018-09-29T16:31:51.881Z,20.30
2018-09-29T16:34:28.511Z,20.20
2018-09-29T16:36:57.454Z,20.10
2018-09-29T16:39:27.781Z,19.90
2018-09-29T16:41:58.265Z,19.80
2018-09-29T16:44:28.056Z,19.70
2018-09-29T16:46:57.317Z,19.60
2018-09-29T16:49:31.123Z,19.50
2018-09-29T16:52:00.748Z,19.40
2018-09-29T16:54:31.061Z,19.30
2018-09-29T16:57:02.625Z,19.10
2018-09-29T16:59:33.287Z,19.10
2018-09-29T17:02:03.051Z,18.90
2018-09-29T17:04:33.551Z,18.80
2018-09-29T17:07:03.437Z,18.70
2018-09-29T17:09:32.710Z,18.60
2018-09-29T17:12:22.074Z,18.50
2018-09-29T17:14:54.018Z,18.40
2018-09-29T17:17:22.998Z,18.30
2018-09-29T17:19:56.008Z,18.20
2018-09-29T17:22:25.111Z,18.10
2018-09-29T17:24:54.127Z,17.90
2018-09-29T17:27:23.212Z,17.70
2018-09-29T17:29:52.804Z,17.60
2018-09-29T17:32:21.775Z,17.40
2018-09-29T17:34:52.720Z,17.40
2018-09-29T17:37:21.434Z,17.40
2018-09-29T17:39:50.332Z,17.30
2018-09-29T17:42:19.561Z,17.30
2018-09-29T17:44:49.926Z,17.30
2018-09-29T17:47:19.830Z,17.20
2018-09-29T17:49:48.740Z,17.10
2018-09-29T17:52:17.547Z,17.00
2018-09-29T17:54:47.210Z,16.90
2018-09-29T17:59:45.694Z,16.80
2018-09-29T18:02:16.762Z,16.70
2018-09-29T18:04:45.695Z,16.60
2018-09-29T18:07:15.026Z,16.50
2018-09-29T18:09:45.417Z,16.30
2018-09-29T18:12:14.703Z,16.30
2018-09-29T18:14:43.656Z,16.20
2018-09-29T18:17:14.083Z,16.10
2018-09-29T18:19:43.126Z,15.90
2018-09-29T18:22:12.986Z,15.80
2018-09-29T18:24:42.218Z,15.80
2018-09-29T18:27:12.395Z,15.70
2018-09-29T18:29:41.506Z,15.60
2018-09-29T18:32:10.915Z,15.40
2018-09-29T18:34:39.932Z,15.40
2018-09-29T18:37:08.993Z,15.30
2018-09-29T18:39:37.871Z,15.20
2018-09-29T18:42:09.627Z,15.10
2018-09-29T18:44:38.700Z,15.00
2018-09-29T18:47:08.433Z,15.00
2018-09-29T18:49:38.022Z,14.90
2018-09-29T18:52:09.620Z,14.80
2018-09-29T18:54:39.246Z,14.80
2018-09-29T18:57:10.139Z,14.70
2018-09-29T18:59:41.776Z,14.60
2018-09-29T19:02:10.708Z,14.70
2018-09-29T19:04:39.546Z,14.60
2018-09-29T19:07:09.974Z,14.50
2018-09-29T19:09:39.348Z,14.40
2018-09-29T19:12:10.243Z,14.40
2018-09-29T19:14:39.124Z,14.30
2018-09-29T19:17:08.777Z,14.30
2018-09-29T19:19:39.617Z,14.30
2018-09-29T19:22:08.968Z,14.20
2018-09-29T19:24:38.224Z,14.30
2018-09-29T19:27:07.706Z,14.30
2018-09-29T19:29:36.784Z,14.20
2018-09-29T19:32:05.569Z,14.20
2018-09-29T19:34:34.615Z,14.10
2018-09-29T19:37:04.024Z,14.00
2018-09-29T19:39:34.420Z,13.90
2018-09-29T19:42:04.240Z,13.90
2018-09-29T19:44:34.355Z,13.90
2018-09-29T19:47:04.978Z,13.80
2018-09-29T19:49:35.191Z,13.80
2018-09-29T19:52:04.519Z,13.70
2018-09-29T19:54:33.499Z,13.60
2018-09-29T19:57:02.678Z,13.60
2018-09-29T19:59:32.455Z,13.50
2018-09-29T20:02:03.573Z,13.50
2018-09-29T20:04:34.836Z,13.40
2018-09-29T20:07:10.283Z,13.40
2018-09-29T20:09:40.692Z,13.40
2018-09-29T20:12:09.706Z,13.40
2018-09-29T20:14:42.548Z,13.30
2018-09-29T20:17:13.577Z,13.30
2018-09-29T20:19:42.645Z,13.30
2018-09-29T20:22:11.728Z,13.20
2018-09-29T20:24:40.724Z,13.20
2018-09-29T20:27:09.910Z,13.20
2018-09-29T20:29:39.210Z,13.10
2018-09-29T20:32:09.107Z,13.10
2018-09-29T20:34:38.360Z,13.10
2018-09-29T20:37:07.661Z,13.00
2018-09-29T20:39:36.583Z,12.90
2018-09-29T20:42:05.584Z,12.90
2018-09-29T20:44:34.669Z,12.90
2018-09-29T20:47:05.004Z,12.80
2018-09-29T20:49:33.855Z,12.80
2018-09-29T20:52:04.986Z,12.80
2018-09-29T20:54:34.484Z,12.80
2018-09-29T20:57:04.109Z,12.70
2018-09-29T20:59:33.169Z,12.60
2018-09-29T21:02:02.452Z,12.60
2018-09-29T21:04:31.340Z,12.60
2018-09-29T21:07:00.468Z,12.50
2018-09-29T21:09:29.657Z,12.50
2018-09-29T21:11:59.763Z,12.50
2018-09-29T21:14:29.076Z,12.40
2018-09-29T21:16:59.058Z,12.50
2018-09-29T21:19:27.872Z,12.40
2018-09-29T21:21:56.978Z,12.30
2018-09-29T21:24:26.206Z,12.20
2018-09-29T21:26:56.497Z,12.20
2018-09-29T21:29:25.739Z,12.20
2018-09-29T21:31:54.747Z,12.20
2018-09-29T21:34:24.836Z,12.10
2018-09-29T21:36:53.869Z,12.00
2018-09-29T21:39:22.895Z,12.00
2018-09-29T21:41:51.855Z,12.00
2018-09-29T21:44:20.812Z,11.90
2018-09-29T21:46:51.103Z,11.90
2018-09-29T21:49:21.347Z,11.90
2018-09-29T21:51:50.492Z,11.80
2018-09-29T21:54:21.543Z,11.80
2018-09-29T21:56:51.000Z,11.80
2018-09-29T21:59:21.523Z,11.70
2018-09-29T22:01:50.490Z,11.70
2018-09-29T22:04:19.392Z,11.70
2018-09-29T22:06:49.272Z,11.60
2018-09-29T22:09:22.195Z,11.60
2018-09-29T22:11:53.772Z,11.50
2018-09-29T22:14:25.931Z,11.50
2018-09-29T22:16:57.093Z,11.50
2018-09-29T22:19:27.173Z,11.40
2018-09-29T22:21:56.396Z,11.40
2018-09-29T22:24:26.239Z,11.40
2018-09-29T22:26:55.173Z,11.40
2018-09-29T22:29:24.897Z,11.40
2018-09-29T22:31:54.702Z,11.30
2018-09-29T22:34:23.953Z,11.30
2018-09-29T22:36:53.968Z,11.20
2018-09-29T22:39:23.318Z,11.20
2018-09-29T22:41:53.835Z,11.10
2018-09-29T22:44:24.415Z,11.10
2018-09-29T22:46:54.257Z,11.10
2018-09-29T22:49:24.436Z,11.10
2018-09-29T22:51:53.643Z,11.10
2018-09-29T22:54:24.503Z,11.00
2018-09-29T22:56:53.618Z,11.00
2018-09-29T22:59:23.321Z,11.00
2018-09-29T23:01:52.993Z,10.90
2018-09-29T23:04:21.858Z,10.90
2018-09-29T23:06:51.317Z,10.90
2018-09-29T23:09:22.029Z,10.80
2018-09-29T23:11:52.493Z,10.80
2018-09-29T23:14:22.666Z,10.70
2018-09-29T23:16:51.604Z,10.70
2018-09-29T23:19:37.887Z,10.70
2018-09-29T23:22:11.139Z,10.70
2018-09-29T23:24:41.604Z,10.60
2018-09-29T23:27:12.085Z,10.60
2018-09-29T23:29:41.854Z,10.60
2018-09-29T23:32:11.010Z,10.60
2018-09-29T23:34:39.919Z,10.50
2018-09-29T23:37:09.323Z,10.50
2018-09-29T23:39:38.623Z,10.50
2018-09-29T23:42:07.553Z,10.50
2018-09-29T23:44:36.365Z,10.40
2018-09-29T23:47:05.219Z,10.40
2018-09-29T23:49:34.253Z,10.40
2018-09-29T23:52:03.312Z,10.40
2018-09-29T23:54:32.324Z,10.40
2018-09-29T23:57:01.495Z,10.40
2018-09-29T23:59:30.228Z,10.40
